Terminal Aerodrome Forecast
Issued by NWS

Home | Current Version | Previous Version | Text Only | Print | Product List | Glossary On
Versions: 1 2 3 4 5 6 7 8 9 10 11 12 13 14
000
FTUS45 KRIW 252300
TAFLND
TAF
KLND 252320Z 2600/2624 25010G18KT P6SM BKN200
     FM260400 25014G22KT P6SM SCT250 WS020/25040KT
     FM261700 25010G20KT P6SM BKN200=

USA.gov is the U.S. government's official web portal to all federal, state and local government web resources and services.